sensor_id;sensor_type;location;lat;lon;timestamp;pressure;altitude;pressure_sealevel;temperature;humidity
25610;BME280;13479;49.044;8.716;2023-04-15T04:02:41;98067.59;;;2.52;77.33
25610;BME280;13479;49.044;8.716;2023-04-15T04:05:07;98069.56;;;2.61;77.99
25610;BME280;13479;49.044;8.716;2023-04-15T04:07:33;98079.72;;;2.66;77.44
25610;BME280;13479;49.044;8.716;2023-04-15T04:09:58;98082.47;;;2.64;77.57
25610;BME280;13479;49.044;8.716;2023-04-15T04:12:23;98087.91;;;2.61;77.69
25610;BME280;13479;49.044;8.716;2023-04-15T04:14:48;98095.03;;;2.59;77.78
25610;BME280;13479;49.044;8.716;2023-04-15T04:17:14;98088.31;;;2.55;77.38
25610;BME280;13479;49.044;8.716;2023-04-15T04:19:39;98081.28;;;2.68;77.99
25610;BME280;13479;49.044;8.716;2023-04-15T04:22:05;98096.38;;;2.65;77.79
25610;BME280;13479;49.044;8.716;2023-04-15T04:24:30;98093.16;;;2.61;77.86
25610;BME280;13479;49.044;8.716;2023-04-15T04:26:55;98106.75;;;2.66;77.85
25610;BME280;13479;49.044;8.716;2023-04-15T04:29:21;98111.25;;;2.90;77.22
25610;BME280;13479;49.044;8.716;2023-04-15T04:31:46;98137.81;;;2.98;76.88
25610;BME280;13479;49.044;8.716;2023-04-15T04:34:12;98153.63;;;2.97;76.89
25610;BME280;13479;49.044;8.716;2023-04-15T04:36:38;98163.28;;;2.96;77.05
25610;BME280;13479;49.044;8.716;2023-04-15T04:39:03;98172.84;;;2.97;76.93
25610;BME280;13479;49.044;8.716;2023-04-15T04:41:28;98185.41;;;2.92;76.58
25610;BME280;13479;49.044;8.716;2023-04-15T04:43:53;98175.97;;;2.89;76.70
25610;BME280;13479;49.044;8.716;2023-04-15T04:46:19;98163.78;;;3.01;76.99
25610;BME280;13479;49.044;8.716;2023-04-15T04:48:44;98152.91;;;3.07;76.81
25610;BME280;13479;49.044;8.716;2023-04-15T04:51:10;98153.84;;;3.06;76.86
25610;BME280;13479;49.044;8.716;2023-04-15T04:53:35;98145.78;;;3.09;77.05
25610;BME280;13479;49.044;8.716;2023-04-15T04:56:01;98150.47;;;3.17;77.13
25610;BME280;13479;49.044;8.716;2023-04-15T04:58:27;98156.03;;;3.13;77.12
25610;BME280;13479;49.044;8.716;2023-04-15T05:00:52;98142.50;;;3.06;77.29
25610;BME280;13479;49.044;8.716;2023-04-15T05:03:17;98114.81;;;3.02;77.76
25610;BME280;13479;49.044;8.716;2023-04-15T05:05:43;98102.13;;;2.96;78.10
25610;BME280;13479;49.044;8.716;2023-04-15T05:08:08;98078.66;;;2.94;78.22
25610;BME280;13479;49.044;8.716;2023-04-15T05:10:33;98071.53;;;2.96;78.86
25610;BME280;13479;49.044;8.716;2023-04-15T05:12:58;98086.81;;;3.02;78.74
25610;BME280;13479;49.044;8.716;2023-04-15T05:15:24;98104.09;;;3.18;78.68
25610;BME280;13479;49.044;8.716;2023-04-15T05:17:49;98128.97;;;3.49;78.50
25610;BME280;13479;49.044;8.716;2023-04-15T05:20:15;98183.63;;;3.68;77.66
25610;BME280;13479;49.044;8.716;2023-04-15T05:22:41;98243.22;;;3.92;76.96
25610;BME280;13479;49.044;8.716;2023-04-15T05:25:06;98289.69;;;4.16;75.54
25610;BME280;13479;49.044;8.716;2023-04-15T05:27:32;98310.78;;;4.27;74.49
25610;BME280;13479;49.044;8.716;2023-04-15T05:29:58;98287.88;;;4.29;74.69
25610;BME280;13479;49.044;8.716;2023-04-15T05:32:23;98276.22;;;4.45;73.76
25610;BME280;13479;49.044;8.716;2023-04-15T05:34:48;98256.59;;;4.62;74.41
25610;BME280;13479;49.044;8.716;2023-04-15T05:37:13;98237.28;;;5.21;74.36
25610;BME280;13479;49.044;8.716;2023-04-15T05:39:39;98252.56;;;6.18;72.33
25610;BME280;13479;49.044;8.716;2023-04-15T05:42:04;98296.13;;;7.10;70.83
25610;BME280;13479;49.044;8.716;2023-04-15T05:44:30;98302.50;;;7.60;69.12
25610;BME280;13479;49.044;8.716;2023-04-15T05:46:55;98305.00;;;7.83;65.45
25610;BME280;13479;49.044;8.716;2023-04-15T05:49:21;98253.03;;;7.93;62.82
25610;BME280;13479;49.044;8.716;2023-04-15T05:51:47;98177.25;;;8.03;61.83
25610;BME280;13479;49.044;8.716;2023-04-15T05:54:12;98155.53;;;8.39;60.08
25610;BME280;13479;49.044;8.716;2023-04-15T05:56:37;98137.41;;;8.93;59.25
25610;BME280;13479;49.044;8.716;2023-04-15T05:59:03;98135.53;;;9.87;56.51
25610;BME280;13479;49.044;8.716;2023-04-15T06:01:28;98108.41;;;10.92;53.53
25610;BME280;13479;49.044;8.716;2023-04-15T06:03:54;98108.34;;;12.04;51.13
25610;BME280;13479;49.044;8.716;2023-04-15T06:06:19;98112.47;;;12.98;47.56
25610;BME280;13479;49.044;8.716;2023-04-15T06:08:45;98127.38;;;13.72;45.00
25610;BME280;13479;49.044;8.716;2023-04-15T06:11:10;98131.00;;;14.11;43.58
25610;BME280;13479;49.044;8.716;2023-04-15T06:13:36;98131.75;;;14.43;42.78
25610;BME280;13479;49.044;8.716;2023-04-15T06:16:01;98146.44;;;14.70;41.72
25610;BME280;13479;49.044;8.716;2023-04-15T06:18:26;98151.56;;;14.95;41.01
25610;BME280;13479;49.044;8.716;2023-04-15T06:20:52;98144.84;;;15.29;40.53
25610;BME280;13479;49.044;8.716;2023-04-15T06:23:17;98151.66;;;15.77;39.61
25610;BME280;13479;49.044;8.716;2023-04-15T06:25:42;98162.22;;;16.58;38.45
25610;BME280;13479;49.044;8.716;2023-04-15T06:28:08;98163.16;;;17.57;36.04
25610;BME280;13479;49.044;8.716;2023-04-15T06:30:33;98165.88;;;18.13;34.85
25610;BME280;13479;49.044;8.716;2023-04-15T06:33:00;98168.06;;;19.05;34.09
25610;BME280;13479;49.044;8.716;2023-04-15T06:35:25;98168.63;;;20.06;32.22
25610;BME280;13479;49.044;8.716;2023-04-15T06:37:51;98176.69;;;21.09;31.27
25610;BME280;13479;49.044;8.716;2023-04-15T06:40:16;98185.75;;;21.96;29.93
25610;BME280;13479;49.044;8.716;2023-04-15T06:42:42;98189.47;;;22.62;29.06
25610;BME280;13479;49.044;8.716;2023-04-15T06:45:07;98186.16;;;23.38;26.89
25610;BME280;13479;49.044;8.716;2023-04-15T06:47:33;98199.47;;;23.52;27.07
25610;BME280;13479;49.044;8.716;2023-04-15T06:49:58;98196.38;;;23.60;27.07
25610;BME280;13479;49.044;8.716;2023-04-15T06:52:24;98199.09;;;23.60;26.73
25610;BME280;13479;49.044;8.716;2023-04-15T06:54:49;98190.84;;;23.55;26.71
25610;BME280;13479;49.044;8.716;2023-04-15T06:57:14;98186.22;;;23.79;26.64
25610;BME280;13479;49.044;8.716;2023-04-15T06:59:40;98184.41;;;24.09;26.64
25610;BME280;13479;49.044;8.716;2023-04-15T07:02:09;98188.59;;;24.45;25.78
25610;BME280;13479;49.044;8.716;2023-04-15T07:04:36;98194.78;;;25.38;24.99
25610;BME280;13479;49.044;8.716;2023-04-15T07:07:02;98186.50;;;26.33;23.73
25610;BME280;13479;49.044;8.716;2023-04-15T07:09:27;98188.09;;;27.22;23.22
25610;BME280;13479;49.044;8.716;2023-04-15T07:11:52;98182.06;;;27.15;23.01
25610;BME280;13479;49.044;8.716;2023-04-15T07:14:18;98193.16;;;28.04;21.62
25610;BME280;13479;49.044;8.716;2023-04-15T07:16:43;98191.84;;;29.93;19.92
25610;BME280;13479;49.044;8.716;2023-04-15T07:19:08;98188.16;;;29.52;20.42
25610;BME280;13479;49.044;8.716;2023-04-15T07:21:33;98192.97;;;30.87;18.87
25610;BME280;13479;49.044;8.716;2023-04-15T07:23:59;98189.22;;;32.14;17.31
25610;BME280;13479;49.044;8.716;2023-04-15T07:26:24;98191.22;;;32.66;17.05
25610;BME280;13479;49.044;8.716;2023-04-15T07:28:50;98187.31;;;32.34;16.87
25610;BME280;13479;49.044;8.716;2023-04-15T07:31:15;98190.22;;;31.99;17.73
25610;BME280;13479;49.044;8.716;2023-04-15T07:33:41;98197.50;;;32.53;17.46
25610;BME280;13479;49.044;8.716;2023-04-15T07:36:06;98188.66;;;31.93;17.13
25610;BME280;13479;49.044;8.716;2023-04-15T07:38:32;98180.06;;;32.24;17.55
25610;BME280;13479;49.044;8.716;2023-04-15T07:40:57;98187.25;;;31.18;17.48
25610;BME280;13479;49.044;8.716;2023-04-15T07:43:23;98178.28;;;29.62;19.45
25610;BME280;13479;49.044;8.716;2023-04-15T07:45:48;98178.28;;;28.32;20.79
25610;BME280;13479;49.044;8.716;2023-04-15T07:48:13;98170.94;;;28.43;20.96
25610;BME280;13479;49.044;8.716;2023-04-15T07:50:38;98165.75;;;28.31;20.60
25610;BME280;13479;49.044;8.716;2023-04-15T07:53:04;98163.63;;;27.75;21.14
25610;BME280;13479;49.044;8.716;2023-04-15T07:55:30;98150.09;;;26.40;23.13
25610;BME280;13479;49.044;8.716;2023-04-15T07:57:55;98158.63;;;26.48;23.25
25610;BME280;13479;49.044;8.716;2023-04-15T08:00:21;98149.97;;;26.84;22.76
25610;BME280;13479;49.044;8.716;2023-04-15T08:02:46;98137.63;;;26.44;23.23
25610;BME280;13479;49.044;8.716;2023-04-15T08:05:12;98138.28;;;26.56;22.95
25610;BME280;13479;49.044;8.716;2023-04-15T08:07:39;98129.34;;;26.06;23.29
25610;BME280;13479;49.044;8.716;2023-04-15T08:10:05;98124.94;;;25.78;23.82
25610;BME280;13479;49.044;8.716;2023-04-15T08:12:30;98126.91;;;25.82;23.61
25610;BME280;13479;49.044;8.716;2023-04-15T08:14:56;98125.63;;;25.28;24.28
25610;BME280;13479;49.044;8.716;2023-04-15T08:17:21;98120.03;;;25.18;24.40
25610;BME280;13479;49.044;8.716;2023-04-15T08:19:47;98116.63;;;24.72;25.38
25610;BME280;13479;49.044;8.716;2023-04-15T08:22:12;98121.34;;;25.33;24.83
25610;BME280;13479;49.044;8.716;2023-04-15T08:24:38;98114.91;;;27.36;23.34
25610;BME280;13479;49.044;8.716;2023-04-15T08:27:03;98131.63;;;29.11;20.96
25610;BME280;13479;49.044;8.716;2023-04-15T08:29:30;98146.72;;;30.40;19.98
25610;BME280;13479;49.044;8.716;2023-04-15T08:31:56;98159.91;;;31.07;19.87
25610;BME280;13479;49.044;8.716;2023-04-15T08:34:22;98172.25;;;30.75;19.22
25610;BME280;13479;49.044;8.716;2023-04-15T08:36:48;98166.16;;;29.83;20.66
25610;BME280;13479;49.044;8.716;2023-04-15T08:39:13;98167.97;;;29.33;20.99
25610;BME280;13479;49.044;8.716;2023-04-15T08:41:40;98163.09;;;28.99;21.24
25610;BME280;13479;49.044;8.716;2023-04-15T08:44:09;98162.53;;;28.81;21.33
25610;BME280;13479;49.044;8.716;2023-04-15T08:46:35;98163.63;;;28.85;21.71
25610;BME280;13479;49.044;8.716;2023-04-15T08:49:03;98158.16;;;28.85;21.72
25610;BME280;13479;49.044;8.716;2023-04-15T08:51:29;98161.13;;;29.35;21.61
25610;BME280;13479;49.044;8.716;2023-04-15T08:53:54;98155.94;;;30.15;20.52
25610;BME280;13479;49.044;8.716;2023-04-15T08:56:24;98172.66;;;30.58;19.71
25610;BME280;13479;49.044;8.716;2023-04-15T08:58:49;98175.53;;;30.32;20.35
25610;BME280;13479;49.044;8.716;2023-04-15T09:01:15;98171.09;;;29.86;21.21
25610;BME280;13479;49.044;8.716;2023-04-15T09:03:41;98163.41;;;29.99;21.20
25610;BME280;13479;49.044;8.716;2023-04-15T09:06:07;98166.41;;;29.97;21.71
25610;BME280;13479;49.044;8.716;2023-04-15T09:08:33;98170.81;;;30.83;21.10
25610;BME280;13479;49.044;8.716;2023-04-15T09:11:04;98172.78;;;32.09;19.63
25610;BME280;13479;49.044;8.716;2023-04-15T09:13:29;98179.16;;;33.00;18.11
25610;BME280;13479;49.044;8.716;2023-04-15T09:15:55;98184.81;;;33.98;17.78
25610;BME280;13479;49.044;8.716;2023-04-15T09:18:30;98199.25;;;34.17;17.25
25610;BME280;13479;49.044;8.716;2023-04-15T09:21:03;98203.72;;;34.41;17.37
25610;BME280;13479;49.044;8.716;2023-04-15T09:23:29;98207.75;;;32.99;18.40
25610;BME280;13479;49.044;8.716;2023-04-15T09:25:56;98210.41;;;32.09;19.56
25610;BME280;13479;49.044;8.716;2023-04-15T09:28:24;98206.47;;;31.96;19.42
25610;BME280;13479;49.044;8.716;2023-04-15T09:30:57;98207.22;;;32.20;19.05
25610;BME280;13479;49.044;8.716;2023-04-15T09:33:23;98204.09;;;32.71;19.06
25610;BME280;13479;49.044;8.716;2023-04-15T09:36:03;98215.00;;;32.57;19.69
25610;BME280;13479;49.044;8.716;2023-04-15T09:38:29;98210.19;;;32.05;19.93
25610;BME280;13479;49.044;8.716;2023-04-15T09:40:55;98200.47;;;31.69;20.08
25610;BME280;13479;49.044;8.716;2023-04-15T09:43:20;98196.41;;;30.68;21.24
25610;BME280;13479;49.044;8.716;2023-04-15T09:45:51;98198.19;;;29.72;21.90
25610;BME280;13479;49.044;8.716;2023-04-15T09:48:19;98193.66;;;29.11;22.66
25610;BME280;13479;49.044;8.716;2023-04-15T09:50:48;98188.69;;;28.41;22.90
25610;BME280;13479;49.044;8.716;2023-04-15T09:53:21;98198.63;;;27.46;24.67
25610;BME280;13479;49.044;8.716;2023-04-15T09:55:55;98194.69;;;26.66;25.62
25610;BME280;13479;49.044;8.716;2023-04-15T09:58:25;98185.44;;;26.12;24.44
25610;BME280;13479;49.044;8.716;2023-04-15T10:00:53;98184.78;;;25.61;26.49
25610;BME280;13479;49.044;8.716;2023-04-15T10:03:23;98184.25;;;25.24;26.68
25610;BME280;13479;49.044;8.716;2023-04-15T10:05:50;98178.50;;;25.04;27.19
25610;BME280;13479;49.044;8.716;2023-04-15T10:08:18;98172.22;;;24.69;27.42
25610;BME280;13479;49.044;8.716;2023-04-15T10:10:45;98167.84;;;24.22;28.20
25610;BME280;13479;49.044;8.716;2023-04-15T10:13:13;98172.38;;;24.04;28.32
25610;BME280;13479;49.044;8.716;2023-04-15T10:15:43;98169.50;;;23.82;28.75
25610;BME280;13479;49.044;8.716;2023-04-15T10:18:10;98168.00;;;23.51;29.36
25610;BME280;13479;49.044;8.716;2023-04-15T10:20:35;98166.03;;;23.34;29.03
25610;BME280;13479;49.044;8.716;2023-04-15T10:23:01;98156.03;;;23.35;29.28
25610;BME280;13479;49.044;8.716;2023-04-15T10:25:28;98161.44;;;23.23;29.56
25610;BME280;13479;49.044;8.716;2023-04-15T10:27:54;98170.63;;;23.22;30.09
25610;BME280;13479;49.044;8.716;2023-04-15T10:30:20;98167.28;;;22.96;30.05
25610;BME280;13479;49.044;8.716;2023-04-15T10:32:46;98171.50;;;22.92;30.66
25610;BME280;13479;49.044;8.716;2023-04-15T10:35:13;98174.41;;;23.21;30.79
25610;BME280;13479;49.044;8.716;2023-04-15T10:37:39;98176.47;;;23.19;29.75
25610;BME280;13479;49.044;8.716;2023-04-15T10:40:24;98169.78;;;23.09;29.58
25610;BME280;13479;49.044;8.716;2023-04-15T10:43:02;98168.22;;;22.90;30.00
25610;BME280;13479;49.044;8.716;2023-04-15T10:45:32;98178.88;;;22.61;28.77
25610;BME280;13479;49.044;8.716;2023-04-15T10:48:01;98172.97;;;22.21;29.54
25610;BME280;13479;49.044;8.716;2023-04-15T10:50:27;98165.06;;;21.89;30.77
25610;BME280;13479;49.044;8.716;2023-04-15T10:52:54;98175.44;;;21.74;31.81
25610;BME280;13479;49.044;8.716;2023-04-15T10:55:23;98174.94;;;21.58;30.11
25610;BME280;13479;49.044;8.716;2023-04-15T10:57:53;98182.88;;;21.35;30.70
25610;BME280;13479;49.044;8.716;2023-04-15T11:00:20;98174.59;;;21.11;30.75
25610;BME280;13479;49.044;8.716;2023-04-15T11:02:52;98182.34;;;20.75;30.13
25610;BME280;13479;49.044;8.716;2023-04-15T11:05:19;98172.41;;;20.76;30.94
25610;BME280;13479;49.044;8.716;2023-04-15T11:12:43;98177.19;;;20.67;29.81
25610;BME280;13479;49.044;8.716;2023-04-15T11:15:37;98181.25;;;20.51;29.61
25610;BME280;13479;49.044;8.716;2023-04-15T11:18:23;98181.69;;;20.09;30.30
25610;BME280;13479;49.044;8.716;2023-04-15T11:23:26;98178.78;;;19.38;31.49
25610;BME280;13479;49.044;8.716;2023-04-15T11:25:54;98178.00;;;19.04;32.69
25610;BME280;13479;49.044;8.716;2023-04-15T11:28:19;98176.94;;;18.72;32.50
25610;BME280;13479;49.044;8.716;2023-04-15T11:30:45;98178.78;;;18.51;33.66
25610;BME280;13479;49.044;8.716;2023-04-15T11:33:11;98179.63;;;18.51;33.70
25610;BME280;13479;49.044;8.716;2023-04-15T11:35:40;98188.69;;;18.64;31.24
25610;BME280;13479;49.044;8.716;2023-04-15T11:38:08;98182.31;;;18.78;30.63
25610;BME280;13479;49.044;8.716;2023-04-15T11:40:34;98173.22;;;18.93;31.99
25610;BME280;13479;49.044;8.716;2023-04-15T11:43:08;98170.75;;;19.05;32.32
25610;BME280;13479;49.044;8.716;2023-04-15T11:45:35;98168.03;;;19.38;32.17
25610;BME280;13479;49.044;8.716;2023-04-15T11:48:07;98177.53;;;19.48;31.12
25610;BME280;13479;49.044;8.716;2023-04-15T11:50:33;98182.75;;;19.29;31.62
25610;BME280;13479;49.044;8.716;2023-04-15T11:53:00;98184.34;;;19.50;31.75
25610;BME280;13479;49.044;8.716;2023-04-15T11:55:27;98183.03;;;19.73;31.27
25610;BME280;13479;49.044;8.716;2023-04-15T11:58:07;98188.13;;;20.01;30.13
25610;BME280;13479;49.044;8.716;2023-04-15T12:00:32;98196.84;;;20.03;29.99
25610;BME280;13479;49.044;8.716;2023-04-15T12:03:30;98221.13;;;19.90;29.54
25610;BME280;13479;49.044;8.716;2023-04-15T12:11:37;98230.09;;;19.57;29.80
25610;BME280;13479;49.044;8.716;2023-04-15T12:14:20;98228.44;;;19.42;32.11
25610;BME280;13479;49.044;8.716;2023-04-15T12:16:48;98231.38;;;19.21;32.72
25610;BME280;13479;49.044;8.716;2023-04-15T12:19:15;98227.00;;;18.93;31.18
25610;BME280;13479;49.044;8.716;2023-04-15T12:21:44;98229.28;;;18.82;32.26
25610;BME280;13479;49.044;8.716;2023-04-15T12:24:10;98223.25;;;18.67;33.24
25610;BME280;13479;49.044;8.716;2023-04-15T12:26:53;98237.91;;;18.58;34.29
25610;BME280;13479;49.044;8.716;2023-04-15T12:29:19;98239.91;;;18.35;34.05
25610;BME280;13479;49.044;8.716;2023-04-15T12:31:47;98247.28;;;17.78;33.06
25610;BME280;13479;49.044;8.716;2023-04-15T12:34:13;98249.38;;;17.48;32.38
25610;BME280;13479;49.044;8.716;2023-04-15T12:36:39;98242.66;;;17.30;32.40
25610;BME280;13479;49.044;8.716;2023-04-15T12:39:05;98264.19;;;17.15;31.78
25610;BME280;13479;49.044;8.716;2023-04-15T12:41:31;98259.00;;;17.13;32.60
25610;BME280;13479;49.044;8.716;2023-04-15T12:43:57;98259.97;;;17.27;31.68
25610;BME280;13479;49.044;8.716;2023-04-15T12:46:22;98269.13;;;17.40;29.91
25610;BME280;13479;49.044;8.716;2023-04-15T12:48:49;98281.72;;;17.39;29.98
25610;BME280;13479;49.044;8.716;2023-04-15T12:51:15;98285.63;;;17.37;30.07
25610;BME280;13479;49.044;8.716;2023-04-15T12:53:40;98296.34;;;17.37;29.43
25610;BME280;13479;49.044;8.716;2023-04-15T12:56:05;98305.53;;;17.49;29.69
25610;BME280;13479;49.044;8.716;2023-04-15T12:58:31;98309.03;;;17.50;30.30
25610;BME280;13479;49.044;8.716;2023-04-15T13:00:56;98307.53;;;17.40;30.65
25610;BME280;13479;49.044;8.716;2023-04-15T13:03:21;98306.00;;;17.31;30.57
25610;BME280;13479;49.044;8.716;2023-04-15T13:05:47;98316.81;;;17.16;30.02
25610;BME280;13479;49.044;8.716;2023-04-15T13:08:12;98309.22;;;17.20;31.09
25610;BME280;13479;49.044;8.716;2023-04-15T13:10:37;98307.16;;;17.22;30.64
25610;BME280;13479;49.044;8.716;2023-04-15T13:13:04;98320.69;;;17.13;30.27
25610;BME280;13479;49.044;8.716;2023-04-15T13:15:29;98316.91;;;17.08;30.77
25610;BME280;13479;49.044;8.716;2023-04-15T13:17:54;98323.22;;;17.00;30.60
25610;BME280;13479;49.044;8.716;2023-04-15T13:20:20;98318.03;;;16.77;30.20
25610;BME280;13479;49.044;8.716;2023-04-15T13:22:45;98319.91;;;16.61;30.49
25610;BME280;13479;49.044;8.716;2023-04-15T13:25:10;98327.53;;;16.43;31.30
25610;BME280;13479;49.044;8.716;2023-04-15T13:27:36;98313.06;;;16.22;32.97
25610;BME280;13479;49.044;8.716;2023-04-15T13:30:02;98320.66;;;16.18;32.09
25610;BME280;13479;49.044;8.716;2023-04-15T13:32:28;98321.00;;;16.15;31.93
25610;BME280;13479;49.044;8.716;2023-04-15T13:34:53;98312.22;;;16.06;32.21
25610;BME280;13479;49.044;8.716;2023-04-15T13:37:27;98314.09;;;15.91;31.87
25610;BME280;13479;49.044;8.716;2023-04-15T13:39:53;98316.81;;;15.83;32.39
25610;BME280;13479;49.044;8.716;2023-04-15T13:42:18;98320.09;;;15.55;33.06
25610;BME280;13479;49.044;8.716;2023-04-15T13:44:44;98317.25;;;15.71;33.58
25610;BME280;13479;49.044;8.716;2023-04-15T13:47:09;98316.06;;;15.59;34.13
25610;BME280;13479;49.044;8.716;2023-04-15T13:49:35;98321.47;;;15.51;33.98
25610;BME280;13479;49.044;8.716;2023-04-15T13:52:00;98319.66;;;15.66;33.49
25610;BME280;13479;49.044;8.716;2023-04-15T13:54:25;98324.53;;;15.48;34.22
25610;BME280;13479;49.044;8.716;2023-04-15T13:56:51;98320.44;;;15.37;34.85
25610;BME280;13479;49.044;8.716;2023-04-15T13:59:16;98319.38;;;15.23;35.24
25610;BME280;13479;49.044;8.716;2023-04-15T14:01:41;98322.06;;;15.23;35.55
25610;BME280;13479;49.044;8.716;2023-04-15T14:04:07;98323.75;;;15.16;35.12
25610;BME280;13479;49.044;8.716;2023-04-15T14:06:32;98323.13;;;15.13;35.51
25610;BME280;13479;49.044;8.716;2023-04-15T14:08:58;98318.25;;;14.94;36.77
25610;BME280;13479;49.044;8.716;2023-04-15T14:11:23;98339.50;;;14.87;37.11
25610;BME280;13479;49.044;8.716;2023-04-15T14:13:48;98342.47;;;14.92;36.35
25610;BME280;13479;49.044;8.716;2023-04-15T14:16:14;98335.28;;;14.93;36.58
25610;BME280;13479;49.044;8.716;2023-04-15T14:18:39;98340.94;;;14.98;36.27
25610;BME280;13479;49.044;8.716;2023-04-15T14:21:05;98338.97;;;14.92;37.03
25610;BME280;13479;49.044;8.716;2023-04-15T14:23:31;98338.97;;;14.92;36.38
25610;BME280;13479;49.044;8.716;2023-04-15T14:25:56;98349.31;;;14.95;35.76
25610;BME280;13479;49.044;8.716;2023-04-15T14:28:21;98344.03;;;14.87;36.73
25610;BME280;13479;49.044;8.716;2023-04-15T14:30:47;98345.22;;;14.84;36.31
25610;BME280;13479;49.044;8.716;2023-04-15T14:33:12;98352.28;;;15.00;35.71
25610;BME280;13479;49.044;8.716;2023-04-15T14:35:37;98346.50;;;14.88;36.90
25610;BME280;13479;49.044;8.716;2023-04-15T14:38:03;98363.81;;;15.01;36.78
25610;BME280;13479;49.044;8.716;2023-04-15T14:40:30;98363.94;;;15.07;35.12
25610;BME280;13479;49.044;8.716;2023-04-15T14:42:55;98367.31;;;15.01;35.97
25610;BME280;13479;49.044;8.716;2023-04-15T14:45:20;98377.78;;;15.11;35.95
25610;BME280;13479;49.044;8.716;2023-04-15T14:47:45;98379.91;;;15.16;35.52
25610;BME280;13479;49.044;8.716;2023-04-15T14:50:12;98368.75;;;15.12;37.55
25610;BME280;13479;49.044;8.716;2023-04-15T14:52:37;98375.47;;;15.08;36.43
25610;BME280;13479;49.044;8.716;2023-04-15T14:55:10;98371.72;;;15.17;37.13
25610;BME280;13479;49.044;8.716;2023-04-15T14:57:37;98379.81;;;15.32;36.83
25610;BME280;13479;49.044;8.716;2023-04-15T15:00:03;98386.41;;;15.44;35.00
25610;BME280;13479;49.044;8.716;2023-04-15T15:02:29;98399.69;;;15.53;34.67
25610;BME280;13479;49.044;8.716;2023-04-15T15:04:55;98418.59;;;15.74;34.05
25610;BME280;13479;49.044;8.716;2023-04-15T15:07:21;98419.59;;;15.73;34.76
25610;BME280;13479;49.044;8.716;2023-04-15T15:09:47;98421.63;;;16.10;34.87
25610;BME280;13479;49.044;8.716;2023-04-15T15:12:12;98430.03;;;16.06;33.45
25610;BME280;13479;49.044;8.716;2023-04-15T15:14:37;98436.78;;;16.02;33.94
25610;BME280;13479;49.044;8.716;2023-04-15T15:17:02;98443.97;;;16.02;33.85
25610;BME280;13479;49.044;8.716;2023-04-15T15:19:28;98447.53;;;15.94;34.75
25610;BME280;13479;49.044;8.716;2023-04-15T15:21:53;98444.94;;;15.86;34.92
25610;BME280;13479;49.044;8.716;2023-04-15T15:24:18;98450.78;;;15.66;34.86
25610;BME280;13479;49.044;8.716;2023-04-15T15:26:44;98443.38;;;15.45;35.55
25610;BME280;13479;49.044;8.716;2023-04-15T15:29:09;98444.47;;;15.36;36.62
25610;BME280;13479;49.044;8.716;2023-04-15T15:31:34;98448.72;;;15.22;37.03
25610;BME280;13479;49.044;8.716;2023-04-15T15:34:00;98443.84;;;15.02;38.65
25610;BME280;13479;49.044;8.716;2023-04-15T15:36:25;98454.94;;;14.82;38.64
25610;BME280;13479;49.044;8.716;2023-04-15T15:38:51;98459.31;;;14.75;39.19
25610;BME280;13479;49.044;8.716;2023-04-15T15:41:17;98463.34;;;14.63;40.18
25610;BME280;13479;49.044;8.716;2023-04-15T15:43:42;98467.03;;;14.54;40.95
25610;BME280;13479;49.044;8.716;2023-04-15T15:46:08;98474.22;;;14.45;41.71
25610;BME280;13479;49.044;8.716;2023-04-15T15:48:33;98481.09;;;14.31;42.08
25610;BME280;13479;49.044;8.716;2023-04-15T15:50:58;98486.09;;;14.26;42.75
25610;BME280;13479;49.044;8.716;2023-04-15T15:53:24;98497.81;;;14.08;44.29
25610;BME280;13479;49.044;8.716;2023-04-15T15:55:50;98506.81;;;14.15;44.84
25610;BME280;13479;49.044;8.716;2023-04-15T15:58:15;98516.16;;;13.95;46.22
25610;BME280;13479;49.044;8.716;2023-04-15T16:00:41;98526.50;;;13.81;47.92
25610;BME280;13479;49.044;8.716;2023-04-15T16:03:06;98551.81;;;13.69;48.71
25610;BME280;13479;49.044;8.716;2023-04-15T16:05:32;98563.78;;;13.48;50.18
25610;BME280;13479;49.044;8.716;2023-04-15T16:07:57;98593.03;;;13.32;51.50
25610;BME280;13479;49.044;8.716;2023-04-15T16:10:22;98617.56;;;13.09;53.12
25610;BME280;13479;49.044;8.716;2023-04-15T16:12:48;98637.19;;;13.00;53.42
25610;BME280;13479;49.044;8.716;2023-04-15T16:15:13;98649.38;;;12.84;55.22
25610;BME280;13479;49.044;8.716;2023-04-15T16:17:39;98668.28;;;12.73;55.63
25610;BME280;13479;49.044;8.716;2023-04-15T16:20:04;98661.00;;;12.57;57.01
25610;BME280;13479;49.044;8.716;2023-04-15T16:22:31;98666.75;;;12.44;57.79
25610;BME280;13479;49.044;8.716;2023-04-15T16:24:57;98656.56;;;12.21;58.71
25610;BME280;13479;49.044;8.716;2023-04-15T16:27:23;98642.03;;;12.15;59.61
25610;BME280;13479;49.044;8.716;2023-04-15T16:29:49;98632.81;;;12.10;59.97
25610;BME280;13479;49.044;8.716;2023-04-15T16:32:14;98630.81;;;12.12;59.66
25610;BME280;13479;49.044;8.716;2023-04-15T16:34:40;98621.94;;;12.03;60.57
25610;BME280;13479;49.044;8.716;2023-04-15T16:37:06;98615.38;;;11.97;61.46
25610;BME280;13479;49.044;8.716;2023-04-15T16:39:31;98615.69;;;11.94;62.33
25610;BME280;13479;49.044;8.716;2023-04-15T16:41:56;98613.06;;;11.84;63.06
25610;BME280;13479;49.044;8.716;2023-04-15T16:44:23;98619.53;;;11.82;64.14
25610;BME280;13479;49.044;8.716;2023-04-15T16:46:48;98602.88;;;11.80;64.28
25610;BME280;13479;49.044;8.716;2023-04-15T16:49:14;98603.88;;;11.79;64.46
25610;BME280;13479;49.044;8.716;2023-04-15T16:51:39;98595.53;;;11.73;64.84
25610;BME280;13479;49.044;8.716;2023-04-15T16:54:05;98589.72;;;11.60;65.92
25610;BME280;13479;49.044;8.716;2023-04-15T16:56:30;98587.00;;;11.70;65.80
25610;BME280;13479;49.044;8.716;2023-04-15T16:58:55;98575.91;;;11.56;67.11
25610;BME280;13479;49.044;8.716;2023-04-15T17:01:21;98590.75;;;11.49;67.28
25610;BME280;13479;49.044;8.716;2023-04-15T17:03:46;98584.22;;;11.43;68.42
25610;BME280;13479;49.044;8.716;2023-04-15T17:06:13;98595.75;;;11.34;69.33
25610;BME280;13479;49.044;8.716;2023-04-15T17:08:38;98601.75;;;11.36;69.62
25610;BME280;13479;49.044;8.716;2023-04-15T17:11:04;98610.31;;;11.30;69.90
25610;BME280;13479;49.044;8.716;2023-04-15T17:13:30;98599.75;;;11.10;71.33